createdAt,value
2022-08-22T00:02:01.794Z,19.92
2022-08-22T00:02:47.029Z,20.44
2022-08-22T00:02:54.492Z,20.45
2022-08-22T00:06:55.199Z,19.85
2022-08-22T00:11:50.443Z,19.81
2022-08-22T00:16:46.961Z,19.82
2022-08-22T00:21:43.016Z,19.81
2022-08-22T00:26:36.172Z,19.79
2022-08-22T00:31:31.955Z,19.69
2022-08-22T00:36:25.933Z,19.68
2022-08-22T00:41:25.417Z,19.66
2022-08-22T00:46:22.106Z,19.64
2022-08-22T00:51:26.413Z,19.56
2022-08-22T00:56:30.836Z,19.59
2022-08-22T01:01:25.429Z,19.53
2022-08-22T01:06:21.707Z,19.48
2022-08-22T01:11:28.058Z,19.34
2022-08-22T01:16:33.581Z,19.48
2022-08-22T01:21:39.340Z,19.50
2022-08-22T01:26:53.446Z,19.49
2022-08-22T01:31:58.037Z,19.53
2022-08-22T01:37:04.501Z,19.54
2022-08-22T01:42:17.934Z,19.52
2022-08-22T01:47:11.180Z,19.52
2022-08-22T01:52:06.443Z,19.47
2022-08-22T01:57:01.940Z,19.39
2022-08-22T02:02:01.728Z,19.37
2022-08-22T02:07:02.353Z,19.38
2022-08-22T02:11:55.123Z,19.35
2022-08-22T02:16:47.549Z,19.31
2022-08-22T02:21:47.681Z,19.31
2022-08-22T02:26:46.619Z,19.31
2022-08-22T02:31:40.705Z,19.29
2022-08-22T02:36:34.263Z,19.29
2022-08-22T02:41:30.910Z,19.28
2022-08-22T02:46:25.595Z,19.26
2022-08-22T02:51:19.889Z,19.24
2022-08-22T02:56:12.211Z,19.21
2022-08-22T03:01:16.831Z,19.19
2022-08-22T03:06:10.542Z,19.20
2022-08-22T03:11:06.169Z,19.18
2022-08-22T03:15:57.420Z,19.16
2022-08-22T03:20:52.232Z,19.13
2022-08-22T03:25:50.926Z,19.07
2022-08-22T03:30:46.650Z,19.06
2022-08-22T03:35:38.698Z,19.03
2022-08-22T03:40:32.103Z,19.04
2022-08-22T03:45:41.837Z,19.05
2022-08-22T03:50:50.513Z,19.04
2022-08-22T03:55:54.685Z,19.01
2022-08-22T04:01:02.665Z,18.97
2022-08-22T04:06:04.295Z,18.93
2022-08-22T04:11:22.074Z,18.87
2022-08-22T04:16:22.324Z,18.86
2022-08-22T04:21:20.712Z,18.81
2022-08-22T04:26:12.904Z,18.75
2022-08-22T04:31:08.794Z,18.72
2022-08-22T04:36:02.518Z,18.63
2022-08-22T04:41:01.412Z,18.58
2022-08-22T04:45:59.118Z,18.30
2022-08-22T04:51:00.294Z,18.53
2022-08-22T04:56:06.637Z,18.54
2022-08-22T05:01:00.928Z,18.44
2022-08-22T05:05:53.099Z,18.49
2022-08-22T05:10:46.426Z,18.44
2022-08-22T05:15:42.017Z,18.45
2022-08-22T05:20:33.692Z,18.44
2022-08-22T05:25:29.566Z,18.51
2022-08-22T05:30:28.107Z,18.64
2022-08-22T05:35:23.215Z,18.66
2022-08-22T05:40:20.951Z,18.46
2022-08-22T05:45:13.046Z,18.57
2022-08-22T05:50:07.222Z,18.57
2022-08-22T05:55:05.610Z,18.59
2022-08-22T06:00:03.838Z,18.43
2022-08-22T06:05:11.748Z,18.55
2022-08-22T06:10:19.240Z,18.50
2022-08-22T06:15:20.942Z,18.52
2022-08-22T06:20:12.357Z,18.60
2022-08-22T06:25:14.821Z,18.46
2022-08-22T06:30:06.946Z,18.60
2022-08-22T06:35:02.811Z,18.69
2022-08-22T06:39:58.868Z,18.69
2022-08-22T06:44:54.258Z,18.75
2022-08-22T06:49:49.154Z,18.82
2022-08-22T06:54:46.361Z,18.56
2022-08-22T06:59:41.049Z,18.89
2022-08-22T07:04:34.684Z,18.60
2022-08-22T07:09:27.732Z,18.70
2022-08-22T07:14:20.613Z,18.92
2022-08-22T07:19:14.476Z,19.00
2022-08-22T07:24:08.393Z,18.94
2022-08-22T07:29:11.415Z,19.07
2022-08-22T07:34:13.562Z,19.21
2022-08-22T07:39:21.842Z,19.19
2022-08-22T07:44:19.526Z,19.18
2022-08-22T07:49:23.408Z,19.35
2022-08-22T07:54:18.221Z,19.39
2022-08-22T07:59:12.981Z,19.37
2022-08-22T08:04:06.089Z,19.42
2022-08-22T08:08:57.614Z,19.56
2022-08-22T08:13:55.402Z,19.51
2022-08-22T08:18:49.490Z,19.41
2022-08-22T08:23:48.664Z,19.87
2022-08-22T08:28:44.551Z,19.90
2022-08-22T08:33:40.185Z,20.01
2022-08-22T08:38:35.444Z,20.24
2022-08-22T08:43:38.329Z,20.25
2022-08-22T08:48:52.907Z,20.42
2022-08-22T08:54:12.990Z,20.57
2022-08-22T08:59:10.871Z,20.92
2022-08-22T09:04:38.664Z,21.22
2022-08-22T09:09:52.399Z,21.31
2022-08-22T09:15:14.590Z,21.26
2022-08-22T09:20:27.799Z,21.17
2022-08-22T09:25:38.441Z,21.25
2022-08-22T09:30:47.705Z,21.29
2022-08-22T09:40:15.705Z,21.29
2022-08-22T09:41:38.859Z,21.47
2022-08-22T09:46:37.133Z,21.53
2022-08-22T09:51:44.289Z,21.75
2022-08-22T09:56:52.624Z,21.62
2022-08-22T10:01:52.568Z,21.83
2022-08-22T10:06:54.795Z,21.77
2022-08-22T10:11:49.653Z,21.88
2022-08-22T10:17:01.385Z,22.15
2022-08-22T10:22:35.167Z,22.53
2022-08-22T10:27:39.857Z,23.46
2022-08-22T10:32:38.042Z,24.18
2022-08-22T10:37:36.932Z,24.73
2022-08-22T10:42:35.247Z,25.39
2022-08-22T10:47:32.077Z,25.82
2022-08-22T10:52:27.487Z,26.22
2022-08-22T10:57:44.361Z,26.47
2022-08-22T11:02:44.911Z,26.67
2022-08-22T11:07:51.794Z,26.69
2022-08-22T11:12:54.511Z,26.82
2022-08-22T11:18:21.496Z,26.70
2022-08-22T11:23:30.002Z,26.80
2022-08-22T11:28:35.395Z,26.71
2022-08-22T11:33:46.236Z,26.57
2022-08-22T11:38:45.042Z,26.62
2022-08-22T11:43:44.876Z,26.68
2022-08-22T11:48:54.691Z,26.62
2022-08-22T11:53:50.169Z,26.49
2022-08-22T11:58:53.898Z,26.56
2022-08-22T12:04:03.627Z,26.87
2022-08-22T12:09:14.774Z,27.03
2022-08-22T12:14:22.383Z,27.20
2022-08-22T12:19:26.468Z,27.02
2022-08-22T12:25:02.671Z,27.12
2022-08-22T12:30:14.362Z,27.30
2022-08-22T12:35:29.688Z,27.33
2022-08-22T12:40:43.990Z,27.19
2022-08-22T12:45:56.600Z,26.96
2022-08-22T12:50:55.094Z,27.13
2022-08-22T12:56:01.166Z,27.28
2022-08-22T13:00:55.559Z,27.53
2022-08-22T13:06:00.584Z,27.27
2022-08-22T13:10:55.428Z,26.81
2022-08-22T13:15:57.330Z,27.41
2022-08-22T13:20:55.193Z,27.35
2022-08-22T13:26:03.540Z,27.37
2022-08-22T13:31:00.897Z,26.98
2022-08-22T13:35:58.943Z,27.64
2022-08-22T13:40:52.341Z,27.22
2022-08-22T13:45:54.854Z,27.31
2022-08-22T13:51:08.815Z,27.12
2022-08-22T13:56:05.418Z,27.21
2022-08-22T14:01:18.650Z,27.13
2022-08-22T14:06:35.506Z,26.85
2022-08-22T14:11:38.069Z,27.24
2022-08-22T14:16:30.815Z,27.22
2022-08-22T14:21:49.072Z,27.42
2022-08-22T14:26:47.886Z,27.38
2022-08-22T14:31:38.763Z,27.38
2022-08-22T14:36:37.372Z,27.28
2022-08-22T14:41:52.926Z,27.49
2022-08-22T14:46:52.865Z,27.54
2022-08-22T14:51:49.074Z,27.40
2022-08-22T14:56:43.985Z,27.69
2022-08-22T15:01:37.409Z,27.84
2022-08-22T15:06:38.068Z,27.76
2022-08-22T15:11:31.886Z,27.63
2022-08-22T15:16:31.859Z,27.58
2022-08-22T15:21:25.364Z,27.51
2022-08-22T15:26:25.305Z,27.17
2022-08-22T15:31:19.851Z,27.36
2022-08-22T15:36:17.200Z,27.50
2022-08-22T15:41:36.015Z,27.48
2022-08-22T15:46:33.618Z,27.33
2022-08-22T15:51:42.128Z,27.33
2022-08-22T15:56:36.800Z,27.34
2022-08-22T16:01:31.117Z,27.32
2022-08-22T16:06:50.949Z,27.33
2022-08-22T16:11:43.899Z,27.34
2022-08-22T16:16:56.307Z,27.27
2022-08-22T16:22:16.565Z,27.35
2022-08-22T16:27:22.271Z,27.29
2022-08-22T16:32:14.243Z,27.19
2022-08-22T16:37:33.928Z,27.30
2022-08-22T16:42:30.231Z,27.29
2022-08-22T16:47:26.679Z,27.22
2022-08-22T16:52:46.430Z,27.15
2022-08-22T16:58:04.958Z,27.09
2022-08-22T17:03:06.454Z,27.09
2022-08-22T17:08:09.190Z,27.14
2022-08-22T17:13:16.597Z,27.12
2022-08-22T17:18:24.807Z,27.15
2022-08-22T17:23:28.795Z,27.12
2022-08-22T17:28:33.546Z,27.07
2022-08-22T17:33:51.856Z,26.91
2022-08-22T17:39:04.431Z,26.95
2022-08-22T17:44:11.115Z,26.86
2022-08-22T17:49:11.954Z,26.80
2022-08-22T17:54:10.704Z,26.82
2022-08-22T17:59:10.615Z,26.71
2022-08-22T18:04:07.643Z,26.72
2022-08-22T18:09:16.270Z,26.60
2022-08-22T18:14:12.848Z,26.50
2022-08-22T18:19:10.076Z,26.37
2022-08-22T18:24:03.906Z,26.12
2022-08-22T18:28:58.190Z,26.07
2022-08-22T18:33:58.944Z,25.97
2022-08-22T18:38:58.431Z,25.81
2022-08-22T18:43:50.860Z,25.72
2022-08-22T18:49:11.563Z,25.53
2022-08-22T18:54:22.135Z,25.41
2022-08-22T18:59:37.645Z,25.36
2022-08-22T19:05:08.937Z,25.28
2022-08-22T19:10:18.871Z,25.19
2022-08-22T19:15:25.289Z,25.14
2022-08-22T19:20:41.972Z,25.06
2022-08-22T19:25:34.428Z,25.02
2022-08-22T19:30:51.801Z,25.06
2022-08-22T19:36:04.113Z,24.99
2022-08-22T19:40:59.473Z,25.06
2022-08-22T19:45:49.296Z,25.05
2022-08-22T19:50:40.492Z,24.94
2022-08-22T19:55:45.102Z,24.99
2022-08-22T20:00:56.407Z,24.99
2022-08-22T20:05:57.645Z,24.95
2022-08-22T20:11:01.634Z,24.94
2022-08-22T20:16:11.352Z,24.82
2022-08-22T20:21:02.735Z,24.73
2022-08-22T20:25:57.263Z,24.67
2022-08-22T20:30:52.539Z,24.53
2022-08-22T20:35:53.811Z,24.11
2022-08-22T20:40:56.255Z,24.42
2022-08-22T20:46:03.178Z,24.29
2022-08-22T20:51:04.779Z,24.24
2022-08-22T20:55:56.767Z,24.07
2022-08-22T21:00:50.258Z,23.95
2022-08-22T21:05:42.120Z,24.16
2022-08-22T21:10:49.327Z,24.08
2022-08-22T21:15:41.691Z,24.02
2022-08-22T21:20:36.443Z,23.82
2022-08-22T21:25:26.381Z,23.59
2022-08-22T21:30:25.775Z,23.82
2022-08-22T21:35:27.197Z,23.67
2022-08-22T21:40:19.770Z,23.61
2022-08-22T21:45:12.919Z,23.41
2022-08-22T21:50:12.117Z,23.47
2022-08-22T21:55:17.363Z,22.97
2022-08-22T22:00:15.265Z,23.28
2022-08-22T22:05:13.817Z,23.20
2022-08-22T22:10:03.636Z,23.22
2022-08-22T22:14:54.256Z,23.20
2022-08-22T22:19:44.081Z,23.18
2022-08-22T22:24:36.642Z,22.98
2022-08-22T22:29:27.146Z,23.01
2022-08-22T22:34:17.242Z,22.98
2022-08-22T22:39:08.502Z,22.91
2022-08-22T22:44:00.891Z,22.42
2022-08-22T22:48:50.386Z,22.21
2022-08-22T22:53:40.492Z,22.00
2022-08-22T22:58:35.527Z,21.86
2022-08-22T23:03:28.160Z,21.78
2022-08-22T23:08:18.131Z,21.73
2022-08-22T23:13:09.452Z,21.64
2022-08-22T23:18:01.535Z,21.60
2022-08-22T23:22:53.747Z,21.59
2022-08-22T23:27:43.355Z,21.58
2022-08-22T23:32:32.902Z,21.55
2022-08-22T23:37:22.947Z,21.54
2022-08-22T23:42:15.469Z,21.54
2022-08-22T23:47:05.636Z,21.54
2022-08-22T23:51:55.244Z,21.49
2022-08-22T23:56:46.052Z,21.42
